sensor_id;sensor_type;location;lat;lon;timestamp;P1;durP1;ratioP1;P2;durP2;ratioP2
21697;SDS011;11010;49.548;11.926;2023-03-15T00:01:53;3.47;;;1.00;;
21697;SDS011;11010;49.548;11.926;2023-03-15T00:04:21;3.63;;;1.00;;
21697;SDS011;11010;49.548;11.926;2023-03-15T00:06:50;5.70;;;1.17;;
21697;SDS011;11010;49.548;11.926;2023-03-15T00:09:19;4.20;;;1.00;;
21697;SDS011;11010;49.548;11.926;2023-03-15T00:11:47;5.27;;;1.00;;
21697;SDS011;11010;49.548;11.926;2023-03-15T00:14:16;4.53;;;1.00;;
21697;SDS011;11010;49.548;11.926;2023-03-15T00:16:44;5.53;;;1.10;;
21697;SDS011;11010;49.548;11.926;2023-03-15T00:19:12;5.23;;;1.00;;
21697;SDS011;11010;49.548;11.926;2023-03-15T00:21:39;5.97;;;1.00;;
21697;SDS011;11010;49.548;11.926;2023-03-15T00:24:09;4.30;;;1.10;;
21697;SDS011;11010;49.548;11.926;2023-03-15T00:26:37;2.57;;;0.90;;
21697;SDS011;11010;49.548;11.926;2023-03-15T00:29:07;4.77;;;1.10;;
21697;SDS011;11010;49.548;11.926;2023-03-15T00:31:34;5.00;;;1.00;;
21697;SDS011;11010;49.548;11.926;2023-03-15T00:34:02;5.43;;;1.00;;
21697;SDS011;11010;49.548;11.926;2023-03-15T00:36:29;5.53;;;1.10;;
21697;SDS011;11010;49.548;11.926;2023-03-15T00:38:59;5.77;;;1.10;;
21697;SDS011;11010;49.548;11.926;2023-03-15T00:41:26;6.47;;;1.10;;
21697;SDS011;11010;49.548;11.926;2023-03-15T00:43:54;5.17;;;1.20;;
21697;SDS011;11010;49.548;11.926;2023-03-15T00:46:21;5.80;;;1.10;;
21697;SDS011;11010;49.548;11.926;2023-03-15T00:48:50;5.47;;;1.20;;
21697;SDS011;11010;49.548;11.926;2023-03-15T00:51:18;6.80;;;1.10;;
21697;SDS011;11010;49.548;11.926;2023-03-15T00:53:47;4.83;;;1.17;;
21697;SDS011;11010;49.548;11.926;2023-03-15T00:56:20;5.53;;;1.10;;
21697;SDS011;11010;49.548;11.926;2023-03-15T00:58:50;6.53;;;1.10;;
21697;SDS011;11010;49.548;11.926;2023-03-15T01:01:22;4.53;;;1.07;;
21697;SDS011;11010;49.548;11.926;2023-03-15T01:03:52;5.53;;;1.20;;
21697;SDS011;11010;49.548;11.926;2023-03-15T01:06:20;5.47;;;1.23;;
21697;SDS011;11010;49.548;11.926;2023-03-15T01:08:52;4.47;;;1.10;;
21697;SDS011;11010;49.548;11.926;2023-03-15T01:11:24;4.50;;;1.10;;
21697;SDS011;11010;49.548;11.926;2023-03-15T01:13:54;5.40;;;1.30;;
21697;SDS011;11010;49.548;11.926;2023-03-15T01:16:23;5.90;;;1.27;;
21697;SDS011;11010;49.548;11.926;2023-03-15T01:18:51;5.10;;;1.10;;
21697;SDS011;11010;49.548;11.926;2023-03-15T01:21:19;5.67;;;1.30;;
21697;SDS011;11010;49.548;11.926;2023-03-15T01:23:48;5.87;;;1.20;;
21697;SDS011;11010;49.548;11.926;2023-03-15T01:26:20;4.13;;;1.07;;
21697;SDS011;11010;49.548;11.926;2023-03-15T01:28:47;6.53;;;1.30;;
21697;SDS011;11010;49.548;11.926;2023-03-15T01:31:19;5.97;;;1.20;;
21697;SDS011;11010;49.548;11.926;2023-03-15T01:33:54;6.10;;;1.10;;
21697;SDS011;11010;49.548;11.926;2023-03-15T01:36:22;3.70;;;0.90;;
21697;SDS011;11010;49.548;11.926;2023-03-15T01:38:50;6.17;;;1.10;;
21697;SDS011;11010;49.548;11.926;2023-03-15T01:41:23;5.73;;;1.27;;
21697;SDS011;11010;49.548;11.926;2023-03-15T01:43:52;5.47;;;1.20;;
21697;SDS011;11010;49.548;11.926;2023-03-15T01:56:53;8.30;;;1.20;;
21697;SDS011;11010;49.548;11.926;2023-03-15T01:59:45;7.00;;;1.13;;
21697;SDS011;11010;49.548;11.926;2023-03-15T02:02:52;4.23;;;1.10;;
21697;SDS011;11010;49.548;11.926;2023-03-15T02:05:37;6.13;;;1.20;;
21697;SDS011;11010;49.548;11.926;2023-03-15T02:08:18;5.70;;;1.10;;
21697;SDS011;11010;49.548;11.926;2023-03-15T02:10:48;4.77;;;1.00;;
21697;SDS011;11010;49.548;11.926;2023-03-15T02:13:20;4.67;;;1.07;;
21697;SDS011;11010;49.548;11.926;2023-03-15T02:15:52;5.83;;;1.13;;
21697;SDS011;11010;49.548;11.926;2023-03-15T02:18:32;5.03;;;1.10;;
21697;SDS011;11010;49.548;11.926;2023-03-15T02:26:54;5.13;;;1.10;;
21697;SDS011;11010;49.548;11.926;2023-03-15T02:29:24;7.33;;;1.10;;
21697;SDS011;11010;49.548;11.926;2023-03-15T02:31:53;5.60;;;1.20;;
21697;SDS011;11010;49.548;11.926;2023-03-15T02:34:23;6.13;;;1.00;;
21697;SDS011;11010;49.548;11.926;2023-03-15T02:36:51;4.30;;;1.00;;
21697;SDS011;11010;49.548;11.926;2023-03-15T02:39:20;6.10;;;1.00;;
21697;SDS011;11010;49.548;11.926;2023-03-15T02:41:50;5.80;;;1.27;;
21697;SDS011;11010;49.548;11.926;2023-03-15T02:47:00;5.37;;;1.10;;
21697;SDS011;11010;49.548;11.926;2023-03-15T02:49:38;9.33;;;1.43;;
21697;SDS011;11010;49.548;11.926;2023-03-15T02:52:09;5.37;;;1.20;;
21697;SDS011;11010;49.548;11.926;2023-03-15T02:54:40;5.47;;;1.07;;
21697;SDS011;11010;49.548;11.926;2023-03-15T02:57:11;6.13;;;1.23;;
21697;SDS011;11010;49.548;11.926;2023-03-15T02:59:39;5.60;;;1.07;;
21697;SDS011;11010;49.548;11.926;2023-03-15T03:02:11;6.73;;;1.10;;
21697;SDS011;11010;49.548;11.926;2023-03-15T03:04:41;6.23;;;1.30;;
21697;SDS011;11010;49.548;11.926;2023-03-15T03:07:08;10.80;;;1.50;;
21697;SDS011;11010;49.548;11.926;2023-03-15T03:09:49;5.20;;;1.13;;
21697;SDS011;11010;49.548;11.926;2023-03-15T03:12:18;7.10;;;1.10;;
21697;SDS011;11010;49.548;11.926;2023-03-15T03:14:46;7.77;;;1.30;;
21697;SDS011;11010;49.548;11.926;2023-03-15T03:17:16;5.57;;;1.07;;
21697;SDS011;11010;49.548;11.926;2023-03-15T03:19:44;5.47;;;1.10;;
21697;SDS011;11010;49.548;11.926;2023-03-15T03:22:16;6.63;;;1.20;;
21697;SDS011;11010;49.548;11.926;2023-03-15T03:24:45;8.13;;;1.33;;
21697;SDS011;11010;49.548;11.926;2023-03-15T03:27:14;5.53;;;1.40;;
21697;SDS011;11010;49.548;11.926;2023-03-15T03:29:44;6.40;;;1.30;;
21697;SDS011;11010;49.548;11.926;2023-03-15T03:32:13;10.37;;;1.40;;
21697;SDS011;11010;49.548;11.926;2023-03-15T03:34:40;7.00;;;1.23;;
21697;SDS011;11010;49.548;11.926;2023-03-15T03:37:18;4.53;;;1.20;;
21697;SDS011;11010;49.548;11.926;2023-03-15T03:39:54;6.13;;;1.30;;
21697;SDS011;11010;49.548;11.926;2023-03-15T03:42:22;7.17;;;1.37;;
21697;SDS011;11010;49.548;11.926;2023-03-15T03:44:50;6.00;;;1.23;;
21697;SDS011;11010;49.548;11.926;2023-03-15T03:47:22;6.53;;;1.33;;
21697;SDS011;11010;49.548;11.926;2023-03-15T03:49:49;5.37;;;1.30;;
21697;SDS011;11010;49.548;11.926;2023-03-15T03:52:17;6.30;;;1.30;;
21697;SDS011;11010;49.548;11.926;2023-03-15T03:54:45;7.53;;;1.23;;
21697;SDS011;11010;49.548;11.926;2023-03-15T03:57:13;5.97;;;1.40;;
21697;SDS011;11010;49.548;11.926;2023-03-15T03:59:41;6.53;;;1.20;;
21697;SDS011;11010;49.548;11.926;2023-03-15T04:02:08;5.83;;;1.30;;
21697;SDS011;11010;49.548;11.926;2023-03-15T04:04:39;6.80;;;1.30;;
21697;SDS011;11010;49.548;11.926;2023-03-15T04:07:15;5.83;;;1.23;;
21697;SDS011;11010;49.548;11.926;2023-03-15T04:09:43;5.60;;;1.20;;
21697;SDS011;11010;49.548;11.926;2023-03-15T04:12:11;6.47;;;1.40;;
21697;SDS011;11010;49.548;11.926;2023-03-15T04:14:41;5.40;;;1.30;;
21697;SDS011;11010;49.548;11.926;2023-03-15T04:17:10;8.40;;;1.40;;
21697;SDS011;11010;49.548;11.926;2023-03-15T04:19:39;6.30;;;1.40;;
21697;SDS011;11010;49.548;11.926;2023-03-15T04:22:08;7.00;;;1.30;;
21697;SDS011;11010;49.548;11.926;2023-03-15T04:24:54;6.43;;;1.47;;
21697;SDS011;11010;49.548;11.926;2023-03-15T04:27:42;7.43;;;1.50;;
21697;SDS011;11010;49.548;11.926;2023-03-15T04:30:20;6.40;;;1.40;;
21697;SDS011;11010;49.548;11.926;2023-03-15T04:33:12;8.57;;;1.77;;
21697;SDS011;11010;49.548;11.926;2023-03-15T04:35:59;7.93;;;1.70;;
21697;SDS011;11010;49.548;11.926;2023-03-15T04:38:31;7.83;;;1.67;;
21697;SDS011;11010;49.548;11.926;2023-03-15T04:41:20;7.80;;;1.67;;
21697;SDS011;11010;49.548;11.926;2023-03-15T04:44:23;7.73;;;1.70;;
21697;SDS011;11010;49.548;11.926;2023-03-15T04:47:12;9.50;;;2.13;;
21697;SDS011;11010;49.548;11.926;2023-03-15T04:54:05;12.17;;;1.80;;
21697;SDS011;11010;49.548;11.926;2023-03-15T04:56:56;6.17;;;1.40;;
21697;SDS011;11010;49.548;11.926;2023-03-15T04:59:41;10.47;;;1.60;;
21697;SDS011;11010;49.548;11.926;2023-03-15T05:02:27;8.37;;;1.60;;
21697;SDS011;11010;49.548;11.926;2023-03-15T05:05:01;7.37;;;1.60;;
21697;SDS011;11010;49.548;11.926;2023-03-15T05:07:52;7.03;;;1.70;;
21697;SDS011;11010;49.548;11.926;2023-03-15T05:10:30;8.07;;;1.77;;
21697;SDS011;11010;49.548;11.926;2023-03-15T05:13:07;7.70;;;1.50;;
21697;SDS011;11010;49.548;11.926;2023-03-15T05:15:55;5.70;;;1.60;;
21697;SDS011;11010;49.548;11.926;2023-03-15T05:18:39;7.77;;;1.47;;
21697;SDS011;11010;49.548;11.926;2023-03-15T05:21:25;9.27;;;2.17;;
21697;SDS011;11010;49.548;11.926;2023-03-15T05:24:22;8.13;;;1.93;;
21697;SDS011;11010;49.548;11.926;2023-03-15T05:27:16;8.73;;;2.10;;
21697;SDS011;11010;49.548;11.926;2023-03-15T05:29:51;9.50;;;2.00;;
21697;SDS011;11010;49.548;11.926;2023-03-15T05:32:35;7.77;;;1.90;;
21697;SDS011;11010;49.548;11.926;2023-03-15T05:35:11;7.13;;;1.67;;
21697;SDS011;11010;49.548;11.926;2023-03-15T05:37:45;7.73;;;1.90;;
21697;SDS011;11010;49.548;11.926;2023-03-15T05:40:45;6.70;;;1.67;;
21697;SDS011;11010;49.548;11.926;2023-03-15T05:43:32;7.63;;;2.10;;
21697;SDS011;11010;49.548;11.926;2023-03-15T05:46:25;8.47;;;2.07;;
21697;SDS011;11010;49.548;11.926;2023-03-15T05:49:10;8.73;;;2.13;;
21697;SDS011;11010;49.548;11.926;2023-03-15T05:51:48;9.20;;;2.40;;
21697;SDS011;11010;49.548;11.926;2023-03-15T05:54:24;8.43;;;2.10;;
21697;SDS011;11010;49.548;11.926;2023-03-15T05:57:22;8.60;;;2.03;;
21697;SDS011;11010;49.548;11.926;2023-03-15T06:00:08;8.77;;;2.17;;
21697;SDS011;11010;49.548;11.926;2023-03-15T06:02:38;12.00;;;2.57;;
21697;SDS011;11010;49.548;11.926;2023-03-15T06:05:29;6.80;;;2.00;;
21697;SDS011;11010;49.548;11.926;2023-03-15T06:08:01;9.77;;;2.53;;
21697;SDS011;11010;49.548;11.926;2023-03-15T06:10:30;8.73;;;2.40;;
21697;SDS011;11010;49.548;11.926;2023-03-15T06:13:03;9.57;;;2.10;;
21697;SDS011;11010;49.548;11.926;2023-03-15T06:15:31;9.00;;;2.33;;
21697;SDS011;11010;49.548;11.926;2023-03-15T06:17:59;10.00;;;2.60;;
21697;SDS011;11010;49.548;11.926;2023-03-15T06:20:27;10.33;;;2.40;;
21697;SDS011;11010;49.548;11.926;2023-03-15T06:22:59;9.10;;;2.30;;
21697;SDS011;11010;49.548;11.926;2023-03-15T06:25:40;11.83;;;2.63;;
21697;SDS011;11010;49.548;11.926;2023-03-15T06:28:07;8.33;;;2.30;;
21697;SDS011;11010;49.548;11.926;2023-03-15T06:30:36;9.40;;;2.70;;
21697;SDS011;11010;49.548;11.926;2023-03-15T06:33:04;8.43;;;2.40;;
21697;SDS011;11010;49.548;11.926;2023-03-15T06:35:32;10.23;;;2.40;;
21697;SDS011;11010;49.548;11.926;2023-03-15T06:37:59;10.90;;;2.80;;
21697;SDS011;11010;49.548;11.926;2023-03-15T06:40:27;9.73;;;2.63;;
21697;SDS011;11010;49.548;11.926;2023-03-15T06:42:54;10.90;;;2.77;;
21697;SDS011;11010;49.548;11.926;2023-03-15T06:45:22;6.87;;;1.77;;
21697;SDS011;11010;49.548;11.926;2023-03-15T06:47:49;12.20;;;2.50;;
21697;SDS011;11010;49.548;11.926;2023-03-15T06:50:17;10.73;;;2.70;;
21697;SDS011;11010;49.548;11.926;2023-03-15T06:52:44;8.27;;;2.20;;
21697;SDS011;11010;49.548;11.926;2023-03-15T06:55:12;8.23;;;2.40;;
21697;SDS011;11010;49.548;11.926;2023-03-15T06:57:44;9.43;;;2.50;;
21697;SDS011;11010;49.548;11.926;2023-03-15T07:00:12;9.00;;;2.50;;
21697;SDS011;11010;49.548;11.926;2023-03-15T07:02:40;10.27;;;2.63;;
21697;SDS011;11010;49.548;11.926;2023-03-15T07:05:08;11.00;;;2.20;;
21697;SDS011;11010;49.548;11.926;2023-03-15T07:07:36;10.70;;;2.90;;
21697;SDS011;11010;49.548;11.926;2023-03-15T07:10:04;11.07;;;2.80;;
21697;SDS011;11010;49.548;11.926;2023-03-15T07:12:31;11.63;;;2.90;;
21697;SDS011;11010;49.548;11.926;2023-03-15T07:14:59;8.90;;;2.60;;
21697;SDS011;11010;49.548;11.926;2023-03-15T07:17:26;10.50;;;2.80;;
21697;SDS011;11010;49.548;11.926;2023-03-15T07:19:54;9.20;;;2.37;;
21697;SDS011;11010;49.548;11.926;2023-03-15T07:22:22;10.27;;;2.80;;
21697;SDS011;11010;49.548;11.926;2023-03-15T07:24:50;8.17;;;2.40;;
21697;SDS011;11010;49.548;11.926;2023-03-15T07:27:17;9.73;;;2.73;;
21697;SDS011;11010;49.548;11.926;2023-03-15T07:29:45;9.10;;;2.60;;
21697;SDS011;11010;49.548;11.926;2023-03-15T07:32:12;8.90;;;2.90;;
21697;SDS011;11010;49.548;11.926;2023-03-15T07:34:40;11.43;;;2.77;;
21697;SDS011;11010;49.548;11.926;2023-03-15T07:37:08;11.50;;;2.83;;
21697;SDS011;11010;49.548;11.926;2023-03-15T07:39:36;9.13;;;2.27;;
21697;SDS011;11010;49.548;11.926;2023-03-15T07:42:03;10.90;;;2.80;;
21697;SDS011;11010;49.548;11.926;2023-03-15T07:44:39;10.93;;;2.47;;
21697;SDS011;11010;49.548;11.926;2023-03-15T07:47:06;9.23;;;2.37;;
21697;SDS011;11010;49.548;11.926;2023-03-15T07:49:33;10.50;;;2.80;;
21697;SDS011;11010;49.548;11.926;2023-03-15T07:52:01;11.90;;;3.30;;
21697;SDS011;11010;49.548;11.926;2023-03-15T07:54:29;8.70;;;3.03;;
21697;SDS011;11010;49.548;11.926;2023-03-15T07:56:57;11.80;;;3.17;;
21697;SDS011;11010;49.548;11.926;2023-03-15T07:59:25;11.83;;;4.27;;
21697;SDS011;11010;49.548;11.926;2023-03-15T08:01:53;15.90;;;5.53;;
21697;SDS011;11010;49.548;11.926;2023-03-15T08:04:20;11.37;;;3.07;;
21697;SDS011;11010;49.548;11.926;2023-03-15T08:06:48;12.27;;;2.93;;
21697;SDS011;11010;49.548;11.926;2023-03-15T08:09:16;8.93;;;2.30;;
21697;SDS011;11010;49.548;11.926;2023-03-15T08:11:43;13.67;;;3.50;;
21697;SDS011;11010;49.548;11.926;2023-03-15T08:14:11;10.53;;;3.07;;
21697;SDS011;11010;49.548;11.926;2023-03-15T08:16:38;9.63;;;2.70;;
21697;SDS011;11010;49.548;11.926;2023-03-15T08:19:06;11.17;;;3.20;;
21697;SDS011;11010;49.548;11.926;2023-03-15T08:21:34;9.07;;;2.70;;
21697;SDS011;11010;49.548;11.926;2023-03-15T08:24:02;8.03;;;2.27;;
21697;SDS011;11010;49.548;11.926;2023-03-15T08:26:29;10.03;;;3.03;;
21697;SDS011;11010;49.548;11.926;2023-03-15T08:28:57;10.37;;;3.00;;
21697;SDS011;11010;49.548;11.926;2023-03-15T08:31:24;12.10;;;3.23;;
21697;SDS011;11010;49.548;11.926;2023-03-15T08:33:52;13.30;;;3.10;;
21697;SDS011;11010;49.548;11.926;2023-03-15T08:36:19;10.70;;;3.13;;
21697;SDS011;11010;49.548;11.926;2023-03-15T08:38:47;8.33;;;1.90;;
21697;SDS011;11010;49.548;11.926;2023-03-15T08:41:14;12.73;;;3.10;;
21697;SDS011;11010;49.548;11.926;2023-03-15T08:43:42;10.83;;;2.97;;
21697;SDS011;11010;49.548;11.926;2023-03-15T08:46:10;10.87;;;2.73;;
21697;SDS011;11010;49.548;11.926;2023-03-15T08:48:38;9.13;;;2.63;;
21697;SDS011;11010;49.548;11.926;2023-03-15T08:51:05;12.40;;;3.13;;
21697;SDS011;11010;49.548;11.926;2023-03-15T08:53:34;9.63;;;3.20;;
21697;SDS011;11010;49.548;11.926;2023-03-15T08:56:03;10.83;;;3.07;;
21697;SDS011;11010;49.548;11.926;2023-03-15T08:58:30;9.73;;;2.93;;
21697;SDS011;11010;49.548;11.926;2023-03-15T09:00:58;10.33;;;2.70;;
21697;SDS011;11010;49.548;11.926;2023-03-15T09:03:25;8.63;;;2.37;;
21697;SDS011;11010;49.548;11.926;2023-03-15T09:05:56;11.63;;;3.27;;
21697;SDS011;11010;49.548;11.926;2023-03-15T09:08:25;9.40;;;2.90;;
21697;SDS011;11010;49.548;11.926;2023-03-15T09:10:55;9.70;;;2.53;;
21697;SDS011;11010;49.548;11.926;2023-03-15T09:13:23;5.40;;;1.67;;
21697;SDS011;11010;49.548;11.926;2023-03-15T09:15:52;7.70;;;2.13;;
21697;SDS011;11010;49.548;11.926;2023-03-15T09:18:20;11.97;;;3.13;;
21697;SDS011;11010;49.548;11.926;2023-03-15T09:20:47;10.20;;;2.63;;
21697;SDS011;11010;49.548;11.926;2023-03-15T09:23:15;9.80;;;2.63;;
21697;SDS011;11010;49.548;11.926;2023-03-15T09:25:43;9.13;;;2.33;;
21697;SDS011;11010;49.548;11.926;2023-03-15T09:28:10;9.97;;;2.67;;
21697;SDS011;11010;49.548;11.926;2023-03-15T09:30:38;12.07;;;3.00;;
21697;SDS011;11010;49.548;11.926;2023-03-15T09:33:07;9.40;;;2.20;;
21697;SDS011;11010;49.548;11.926;2023-03-15T09:35:35;9.53;;;2.30;;
21697;SDS011;11010;49.548;11.926;2023-03-15T09:38:02;11.57;;;2.70;;
21697;SDS011;11010;49.548;11.926;2023-03-15T09:40:34;12.53;;;2.90;;
21697;SDS011;11010;49.548;11.926;2023-03-15T09:50:59;9.57;;;2.73;;
21697;SDS011;11010;49.548;11.926;2023-03-15T09:56:35;7.53;;;2.03;;
21697;SDS011;11010;49.548;11.926;2023-03-15T09:59:17;9.80;;;2.57;;
21697;SDS011;11010;49.548;11.926;2023-03-15T10:01:48;8.67;;;2.10;;
21697;SDS011;11010;49.548;11.926;2023-03-15T10:06:52;8.00;;;2.20;;
21697;SDS011;11010;49.548;11.926;2023-03-15T10:09:22;8.17;;;2.43;;
21697;SDS011;11010;49.548;11.926;2023-03-15T10:20:13;6.83;;;1.63;;
21697;SDS011;11010;49.548;11.926;2023-03-15T10:25:27;4.00;;;1.00;;
21697;SDS011;11010;49.548;11.926;2023-03-15T10:30:37;5.47;;;1.60;;
21697;SDS011;11010;49.548;11.926;2023-03-15T10:35:44;7.33;;;1.80;;
21697;SDS011;11010;49.548;11.926;2023-03-15T10:38:15;5.30;;;1.60;;
21697;SDS011;11010;49.548;11.926;2023-03-15T10:40:48;5.30;;;1.67;;
21697;SDS011;11010;49.548;11.926;2023-03-15T10:46:03;12.17;;;1.93;;
21697;SDS011;11010;49.548;11.926;2023-03-15T10:48:51;4.03;;;1.10;;
21697;SDS011;11010;49.548;11.926;2023-03-15T10:51:25;7.03;;;1.47;;
21697;SDS011;11010;49.548;11.926;2023-03-15T10:53:55;5.90;;;1.50;;
21697;SDS011;11010;49.548;11.926;2023-03-15T10:59:15;9.03;;;1.87;;
21697;SDS011;11010;49.548;11.926;2023-03-15T11:01:46;9.33;;;1.60;;
21697;SDS011;11010;49.548;11.926;2023-03-15T11:04:19;9.93;;;1.80;;
21697;SDS011;11010;49.548;11.926;2023-03-15T11:09:24;11.27;;;1.90;;
21697;SDS011;11010;49.548;11.926;2023-03-15T11:14:47;6.23;;;1.43;;
21697;SDS011;11010;49.548;11.926;2023-03-15T11:17:27;7.70;;;1.53;;
21697;SDS011;11010;49.548;11.926;2023-03-15T11:20:01;7.20;;;1.40;;
21697;SDS011;11010;49.548;11.926;2023-03-15T11:22:41;5.13;;;1.37;;
21697;SDS011;11010;49.548;11.926;2023-03-15T11:25:12;8.17;;;1.60;;
21697;SDS011;11010;49.548;11.926;2023-03-15T11:27:42;7.00;;;1.60;;
21697;SDS011;11010;49.548;11.926;2023-03-15T11:30:12;7.50;;;2.03;;
21697;SDS011;11010;49.548;11.926;2023-03-15T11:32:44;6.30;;;1.70;;
21697;SDS011;11010;49.548;11.926;2023-03-15T11:35:13;7.87;;;2.30;;
21697;SDS011;11010;49.548;11.926;2023-03-15T11:37:46;9.53;;;2.63;;
21697;SDS011;11010;49.548;11.926;2023-03-15T11:40:44;8.03;;;2.50;;
21697;SDS011;11010;49.548;11.926;2023-03-15T11:43:23;8.07;;;2.13;;
21697;SDS011;11010;49.548;11.926;2023-03-15T11:49:13;10.10;;;2.00;;
21697;SDS011;11010;49.548;11.926;2023-03-15T11:52:00;7.13;;;1.80;;
21697;SDS011;11010;49.548;11.926;2023-03-15T11:54:29;7.73;;;1.93;;
21697;SDS011;11010;49.548;11.926;2023-03-15T11:57:06;9.70;;;2.87;;
21697;SDS011;11010;49.548;11.926;2023-03-15T11:59:54;11.57;;;4.07;;
21697;SDS011;11010;49.548;11.926;2023-03-15T12:04:52;8.17;;;2.30;;
21697;SDS011;11010;49.548;11.926;2023-03-15T12:09:51;6.97;;;1.83;;
21697;SDS011;11010;49.548;11.926;2023-03-15T12:19:57;8.43;;;2.10;;
21697;SDS011;11010;49.548;11.926;2023-03-15T12:22:41;8.53;;;2.20;;
21697;SDS011;11010;49.548;11.926;2023-03-15T12:25:37;8.73;;;2.20;;
21697;SDS011;11010;49.548;11.926;2023-03-15T12:28:29;4.83;;;1.33;;
21697;SDS011;11010;49.548;11.926;2023-03-15T12:31:01;8.17;;;2.00;;
21697;SDS011;11010;49.548;11.926;2023-03-15T12:33:43;9.87;;;2.20;;
21697;SDS011;11010;49.548;11.926;2023-03-15T12:36:25;7.97;;;2.00;;
21697;SDS011;11010;49.548;11.926;2023-03-15T12:41:47;8.07;;;1.83;;
21697;SDS011;11010;49.548;11.926;2023-03-15T12:44:23;9.60;;;2.20;;
21697;SDS011;11010;49.548;11.926;2023-03-15T12:47:01;7.90;;;1.83;;
21697;SDS011;11010;49.548;11.926;2023-03-15T12:49:41;8.37;;;2.37;;
21697;SDS011;11010;49.548;11.926;2023-03-15T12:54:53;8.87;;;2.20;;
21697;SDS011;11010;49.548;11.926;2023-03-15T12:57:28;5.50;;;1.33;;
21697;SDS011;11010;49.548;11.926;2023-03-15T13:00:17;6.93;;;1.80;;
21697;SDS011;11010;49.548;11.926;2023-03-15T13:02:51;6.87;;;1.77;;
21697;SDS011;11010;49.548;11.926;2023-03-15T13:05:35;7.97;;;2.07;;
21697;SDS011;11010;49.548;11.926;2023-03-15T13:08:30;11.83;;;2.27;;
21697;SDS011;11010;49.548;11.926;2023-03-15T13:11:07;4.77;;;1.50;;
21697;SDS011;11010;49.548;11.926;2023-03-15T13:16:35;8.57;;;1.90;;
21697;SDS011;11010;49.548;11.926;2023-03-15T13:24:31;7.20;;;1.60;;
21697;SDS011;11010;49.548;11.926;2023-03-15T13:33:01;4.87;;;1.50;;
21697;SDS011;11010;49.548;11.926;2023-03-15T13:35:44;4.70;;;1.37;;
21697;SDS011;11010;49.548;11.926;2023-03-15T13:38:42;7.03;;;1.73;;
21697;SDS011;11010;49.548;11.926;2023-03-15T13:41:20;7.67;;;2.13;;
21697;SDS011;11010;49.548;11.926;2023-03-15T13:43:57;10.93;;;2.30;;
21697;SDS011;11010;49.548;11.926;2023-03-15T13:46:28;5.27;;;1.43;;
21697;SDS011;11010;49.548;11.926;2023-03-15T13:48:56;8.83;;;1.80;;
21697;SDS011;11010;49.548;11.926;2023-03-15T13:51:27;7.63;;;1.70;;
21697;SDS011;11010;49.548;11.926;2023-03-15T13:54:07;8.20;;;1.70;;
21697;SDS011;11010;49.548;11.926;2023-03-15T14:02:34;5.97;;;1.40;;
21697;SDS011;11010;49.548;11.926;2023-03-15T14:05:03;4.53;;;1.40;;
21697;SDS011;11010;49.548;11.926;2023-03-15T14:07:35;4.93;;;1.47;;
21697;SDS011;11010;49.548;11.926;2023-03-15T14:12:44;5.50;;;1.40;;
21697;SDS011;11010;49.548;11.926;2023-03-15T14:15:58;5.63;;;1.40;;
21697;SDS011;11010;49.548;11.926;2023-03-15T14:20:39;5.97;;;1.50;;
21697;SDS011;11010;49.548;11.926;2023-03-15T14:23:15;6.00;;;1.73;;
21697;SDS011;11010;49.548;11.926;2023-03-15T14:25:54;7.30;;;1.67;;
21697;SDS011;11010;49.548;11.926;2023-03-15T14:28:36;5.80;;;1.40;;
21697;SDS011;11010;49.548;11.926;2023-03-15T14:31:04;5.33;;;1.30;;
21697;SDS011;11010;49.548;11.926;2023-03-15T14:33:35;5.67;;;1.57;;
21697;SDS011;11010;49.548;11.926;2023-03-15T14:36:06;5.57;;;1.60;;
21697;SDS011;11010;49.548;11.926;2023-03-15T14:38:52;6.10;;;1.40;;
21697;SDS011;11010;49.548;11.926;2023-03-15T14:43:53;6.00;;;1.60;;
21697;SDS011;11010;49.548;11.926;2023-03-15T14:46:20;6.20;;;1.33;;
21697;SDS011;11010;49.548;11.926;2023-03-15T14:48:48;5.20;;;1.33;;
21697;SDS011;11010;49.548;11.926;2023-03-15T14:51:17;6.40;;;1.60;;
21697;SDS011;11010;49.548;11.926;2023-03-15T14:53:47;6.90;;;1.60;;
21697;SDS011;11010;49.548;11.926;2023-03-15T14:56:17;5.63;;;1.50;;
21697;SDS011;11010;49.548;11.926;2023-03-15T14:58:45;5.63;;;1.37;;
21697;SDS011;11010;49.548;11.926;2023-03-15T15:01:13;6.70;;;1.63;;
21697;SDS011;11010;49.548;11.926;2023-03-15T15:03:47;5.93;;;1.77;;
21697;SDS011;11010;49.548;11.926;2023-03-15T15:06:18;6.43;;;1.80;;
21697;SDS011;11010;49.548;11.926;2023-03-15T15:08:47;4.40;;;1.30;;
21697;SDS011;11010;49.548;11.926;2023-03-15T15:11:18;4.30;;;1.40;;
21697;SDS011;11010;49.548;11.926;2023-03-15T15:13:46;6.23;;;1.70;;
21697;SDS011;11010;49.548;11.926;2023-03-15T15:16:13;6.23;;;1.70;;
21697;SDS011;11010;49.548;11.926;2023-03-15T15:18:41;6.17;;;1.40;;
21697;SDS011;11010;49.548;11.926;2023-03-15T15:21:24;5.70;;;1.43;;
21697;SDS011;11010;49.548;11.926;2023-03-15T15:24:00;5.23;;;1.33;;
21697;SDS011;11010;49.548;11.926;2023-03-15T15:26:29;5.33;;;1.40;;
21697;SDS011;11010;49.548;11.926;2023-03-15T15:28:57;7.23;;;1.67;;
21697;SDS011;11010;49.548;11.926;2023-03-15T15:31:26;5.93;;;1.33;;
21697;SDS011;11010;49.548;11.926;2023-03-15T15:33:55;6.33;;;1.33;;
21697;SDS011;11010;49.548;11.926;2023-03-15T15:36:27;5.83;;;1.50;;
21697;SDS011;11010;49.548;11.926;2023-03-15T15:38:59;6.17;;;1.30;;
21697;SDS011;11010;49.548;11.926;2023-03-15T15:41:32;5.03;;;1.40;;
21697;SDS011;11010;49.548;11.926;2023-03-15T15:44:00;4.87;;;1.47;;
21697;SDS011;11010;49.548;11.926;2023-03-15T15:46:27;7.07;;;1.53;;
21697;SDS011;11010;49.548;11.926;2023-03-15T15:48:55;5.80;;;1.50;;
21697;SDS011;11010;49.548;11.926;2023-03-15T15:51:25;5.87;;;1.60;;
21697;SDS011;11010;49.548;11.926;2023-03-15T15:53:58;7.37;;;1.70;;
21697;SDS011;11010;49.548;11.926;2023-03-15T15:56:30;5.37;;;1.40;;
21697;SDS011;11010;49.548;11.926;2023-03-15T15:59:01;6.33;;;1.40;;
21697;SDS011;11010;49.548;11.926;2023-03-15T16:01:30;4.80;;;1.23;;
21697;SDS011;11010;49.548;11.926;2023-03-15T16:03:59;5.37;;;1.43;;
21697;SDS011;11010;49.548;11.926;2023-03-15T16:06:27;5.87;;;1.50;;
21697;SDS011;11010;49.548;11.926;2023-03-15T16:08:56;7.40;;;1.53;;
21697;SDS011;11010;49.548;11.926;2023-03-15T16:11:23;4.83;;;1.60;;
21697;SDS011;11010;49.548;11.926;2023-03-15T16:13:51;5.23;;;1.50;;
21697;SDS011;11010;49.548;11.926;2023-03-15T16:16:22;4.87;;;1.40;;
21697;SDS011;11010;49.548;11.926;2023-03-15T16:18:49;5.87;;;1.70;;
21697;SDS011;11010;49.548;11.926;2023-03-15T16:24:20;8.40;;;1.90;;
21697;SDS011;11010;49.548;11.926;2023-03-15T16:26:54;6.53;;;1.60;;
21697;SDS011;11010;49.548;11.926;2023-03-15T16:29:37;5.40;;;1.60;;
21697;SDS011;11010;49.548;11.926;2023-03-15T16:32:12;6.17;;;1.53;;
21697;SDS011;11010;49.548;11.926;2023-03-15T16:34:52;5.40;;;1.40;;
21697;SDS011;11010;49.548;11.926;2023-03-15T16:37:21;3.57;;;1.10;;
21697;SDS011;11010;49.548;11.926;2023-03-15T16:39:51;4.33;;;1.30;;
21697;SDS011;11010;49.548;11.926;2023-03-15T16:42:23;5.37;;;1.47;;
21697;SDS011;11010;49.548;11.926;2023-03-15T16:44:51;5.23;;;1.40;;
21697;SDS011;11010;49.548;11.926;2023-03-15T16:47:19;6.33;;;1.60;;
21697;SDS011;11010;49.548;11.926;2023-03-15T16:49:46;4.90;;;1.40;;
21697;SDS011;11010;49.548;11.926;2023-03-15T16:52:14;5.37;;;1.30;;
21697;SDS011;11010;49.548;11.926;2023-03-15T16:54:43;5.40;;;1.30;;
21697;SDS011;11010;49.548;11.926;2023-03-15T16:57:15;3.73;;;1.10;;
21697;SDS011;11010;49.548;11.926;2023-03-15T16:59:47;5.67;;;1.50;;
21697;SDS011;11010;49.548;11.926;2023-03-15T17:02:19;5.23;;;1.40;;